sensor_id;sensor_type;location;lat;lon;timestamp;pressure;altitude;pressure_sealevel;temperature;humidity
46710;BME280;32442;51.514;-0.178;2023-03-03T00:01:04;102464.19;;;21.04;35.83
46710;BME280;32442;51.514;-0.178;2023-03-03T00:03:33;102473.72;;;21.03;36.11
46710;BME280;32442;51.514;-0.178;2023-03-03T00:06:02;102468.41;;;21.02;36.17
46710;BME280;32442;51.514;-0.178;2023-03-03T00:08:28;102472.91;;;21.03;36.11
46710;BME280;32442;51.514;-0.178;2023-03-03T00:10:55;102473.47;;;21.05;36.13
46710;BME280;32442;51.514;-0.178;2023-03-03T00:13:23;102467.84;;;21.05;35.84
46710;BME280;32442;51.514;-0.178;2023-03-03T00:15:50;102475.72;;;21.03;36.11
46710;BME280;32442;51.514;-0.178;2023-03-03T00:20:51;102468.94;;;21.04;35.97
46710;BME280;32442;51.514;-0.178;2023-03-03T00:23:19;102475.72;;;21.03;36.33
46710;BME280;32442;51.514;-0.178;2023-03-03T00:25:50;102474.03;;;21.02;36.24
46710;BME280;32442;51.514;-0.178;2023-03-03T00:30:47;102481.59;;;21.01;35.92
46710;BME280;32442;51.514;-0.178;2023-03-03T00:33:18;102485.25;;;21.02;36.25
46710;BME280;32442;51.514;-0.178;2023-03-03T00:35:48;102496.75;;;21.00;36.02
46710;BME280;32442;51.514;-0.178;2023-03-03T00:38:16;102488.34;;;21.00;36.46
46710;BME280;32442;51.514;-0.178;2023-03-03T00:40:44;102501.53;;;21.00;36.33
46710;BME280;32442;51.514;-0.178;2023-03-03T00:45:43;102502.66;;;20.99;36.27
46710;BME280;32442;51.514;-0.178;2023-03-03T00:50:41;102498.41;;;20.91;36.56
46710;BME280;32442;51.514;-0.178;2023-03-03T00:53:10;102492.78;;;20.91;36.80
46710;BME280;32442;51.514;-0.178;2023-03-03T00:55:40;102497.56;;;20.91;37.17
46710;BME280;32442;51.514;-0.178;2023-03-03T00:58:07;102495.31;;;20.88;37.17
46710;BME280;32442;51.514;-0.178;2023-03-03T01:00:34;102497.53;;;20.85;37.20
46710;BME280;32442;51.514;-0.178;2023-03-03T01:03:04;102496.13;;;20.83;37.36
46710;BME280;32442;51.514;-0.178;2023-03-03T01:05:31;102492.19;;;20.84;37.34
46710;BME280;32442;51.514;-0.178;2023-03-03T01:07:57;102494.16;;;20.83;37.74
46710;BME280;32442;51.514;-0.178;2023-03-03T01:10:25;102489.66;;;20.82;37.71
46710;BME280;32442;51.514;-0.178;2023-03-03T01:12:53;102505.66;;;20.82;37.61
46710;BME280;32442;51.514;-0.178;2023-03-03T01:15:23;102505.09;;;20.80;37.37
46710;BME280;32442;51.514;-0.178;2023-03-03T01:17:50;102511.00;;;20.78;37.70
46710;BME280;32442;51.514;-0.178;2023-03-03T01:20:17;102513.22;;;20.76;37.58
46710;BME280;32442;51.514;-0.178;2023-03-03T01:22:44;102508.72;;;20.75;37.50
46710;BME280;32442;51.514;-0.178;2023-03-03T01:25:11;102511.53;;;20.75;37.65
46710;BME280;32442;51.514;-0.178;2023-03-03T01:27:38;102508.72;;;20.75;37.57
46710;BME280;32442;51.514;-0.178;2023-03-03T01:30:06;102516.81;;;20.72;37.65
46710;BME280;32442;51.514;-0.178;2023-03-03T01:32:33;102511.50;;;20.70;37.80
46710;BME280;32442;51.514;-0.178;2023-03-03T01:35:00;102519.09;;;20.70;37.84
46710;BME280;32442;51.514;-0.178;2023-03-03T01:37:27;102514.53;;;20.64;37.64
46710;BME280;32442;51.514;-0.178;2023-03-03T01:39:54;102520.13;;;20.59;38.02
46710;BME280;32442;51.514;-0.178;2023-03-03T01:42:21;102515.66;;;20.58;37.99
46710;BME280;32442;51.514;-0.178;2023-03-03T01:44:48;102515.91;;;20.56;38.20
46710;BME280;32442;51.514;-0.178;2023-03-03T01:47:16;102517.88;;;20.56;38.13
46710;BME280;32442;51.514;-0.178;2023-03-03T01:49:48;102512.25;;;20.56;37.82
46710;BME280;32442;51.514;-0.178;2023-03-03T01:54:49;102518.09;;;20.49;38.00
46710;BME280;32442;51.514;-0.178;2023-03-03T01:57:21;102521.75;;;20.50;38.18
46710;BME280;32442;51.514;-0.178;2023-03-03T01:59:50;102521.44;;;20.46;38.32
46710;BME280;32442;51.514;-0.178;2023-03-03T02:02:17;102512.16;;;20.46;38.05
46710;BME280;32442;51.514;-0.178;2023-03-03T02:04:44;102520.03;;;20.44;38.06
46710;BME280;32442;51.514;-0.178;2023-03-03T02:07:11;102517.47;;;20.42;37.95
46710;BME280;32442;51.514;-0.178;2023-03-03T02:12:08;102507.91;;;20.38;38.37
46710;BME280;32442;51.514;-0.178;2023-03-03T02:14:37;102519.41;;;20.36;38.31
46710;BME280;32442;51.514;-0.178;2023-03-03T02:17:03;102506.16;;;20.32;38.40
46710;BME280;32442;51.514;-0.178;2023-03-03T02:19:34;102506.69;;;20.29;38.41
46710;BME280;32442;51.514;-0.178;2023-03-03T02:22:07;102510.59;;;20.28;37.98
46710;BME280;32442;51.514;-0.178;2023-03-03T02:24:37;102499.34;;;20.23;38.31
46710;BME280;32442;51.514;-0.178;2023-03-03T02:27:07;102507.75;;;20.23;38.33
46710;BME280;32442;51.514;-0.178;2023-03-03T02:29:34;102508.28;;;20.20;38.04
46710;BME280;32442;51.514;-0.178;2023-03-03T02:32:00;102506.03;;;20.17;38.03
46710;BME280;32442;51.514;-0.178;2023-03-03T02:34:27;102511.38;;;20.18;38.21
46710;BME280;32442;51.514;-0.178;2023-03-03T02:36:54;102507.41;;;20.14;38.45
46710;BME280;32442;51.514;-0.178;2023-03-03T02:39:22;102503.19;;;20.12;38.57
46710;BME280;32442;51.514;-0.178;2023-03-03T02:41:51;102508.22;;;20.10;38.46
46710;BME280;32442;51.514;-0.178;2023-03-03T02:44:22;102506.78;;;20.07;38.22
46710;BME280;32442;51.514;-0.178;2023-03-03T02:46:50;102513.50;;;20.06;38.34
46710;BME280;32442;51.514;-0.178;2023-03-03T02:49:18;102509.84;;;20.06;38.42
46710;BME280;32442;51.514;-0.178;2023-03-03T02:51:45;102514.63;;;20.05;38.19
46710;BME280;32442;51.514;-0.178;2023-03-03T02:54:12;102517.13;;;20.02;38.41
46710;BME280;32442;51.514;-0.178;2023-03-03T02:56:40;102516.28;;;20.01;38.60
46710;BME280;32442;51.514;-0.178;2023-03-03T02:59:07;102508.09;;;19.99;38.69
46710;BME280;32442;51.514;-0.178;2023-03-03T03:01:34;102509.75;;;19.95;38.38
46710;BME280;32442;51.514;-0.178;2023-03-03T03:06:34;102507.50;;;19.92;38.65
46710;BME280;32442;51.514;-0.178;2023-03-03T03:09:01;102522.63;;;19.91;38.58
46710;BME280;32442;51.514;-0.178;2023-03-03T03:11:29;102517.88;;;19.92;38.62
46710;BME280;32442;51.514;-0.178;2023-03-03T03:13:55;102519.25;;;19.89;38.60
46710;BME280;32442;51.514;-0.178;2023-03-03T03:16:22;102515.84;;;19.87;38.49
46710;BME280;32442;51.514;-0.178;2023-03-03T03:18:49;102518.06;;;19.85;38.45
46710;BME280;32442;51.514;-0.178;2023-03-03T03:21:16;102520.88;;;19.85;38.70
46710;BME280;32442;51.514;-0.178;2023-03-03T03:23:43;102523.97;;;19.84;38.75
46710;BME280;32442;51.514;-0.178;2023-03-03T03:26:10;102528.72;;;19.83;38.55
46710;BME280;32442;51.514;-0.178;2023-03-03T03:28:37;102522.53;;;19.81;38.94
46710;BME280;32442;51.514;-0.178;2023-03-03T03:31:04;102521.09;;;19.79;38.70
46710;BME280;32442;51.514;-0.178;2023-03-03T03:33:32;102519.66;;;19.76;39.03
46710;BME280;32442;51.514;-0.178;2023-03-03T03:35:59;102522.47;;;19.76;38.94
46710;BME280;32442;51.514;-0.178;2023-03-03T03:38:26;102518.00;;;19.75;38.85
46710;BME280;32442;51.514;-0.178;2023-03-03T03:40:53;102519.34;;;19.73;38.98
46710;BME280;32442;51.514;-0.178;2023-03-03T03:43:20;102526.91;;;19.72;38.77
46710;BME280;32442;51.514;-0.178;2023-03-03T03:45:46;102527.19;;;19.71;38.88
46710;BME280;32442;51.514;-0.178;2023-03-03T03:48:13;102529.16;;;19.70;39.15
46710;BME280;32442;51.514;-0.178;2023-03-03T03:50:41;102528.31;;;19.70;38.75
46710;BME280;32442;51.514;-0.178;2023-03-03T03:53:08;102530.50;;;19.68;39.23
46710;BME280;32442;51.514;-0.178;2023-03-03T03:55:34;102533.00;;;19.64;39.24
46710;BME280;32442;51.514;-0.178;2023-03-03T03:58:01;102536.34;;;19.61;39.32
46710;BME280;32442;51.514;-0.178;2023-03-03T04:00:28;102535.25;;;19.62;39.17
46710;BME280;32442;51.514;-0.178;2023-03-03T04:02:55;102536.59;;;19.60;39.46
46710;BME280;32442;51.514;-0.178;2023-03-03T04:05:22;102533.22;;;19.58;39.46
46710;BME280;32442;51.514;-0.178;2023-03-03T04:07:48;102529.56;;;19.57;39.26
46710;BME280;32442;51.514;-0.178;2023-03-03T04:10:15;102531.78;;;19.55;39.42
46710;BME280;32442;51.514;-0.178;2023-03-03T04:12:43;102535.97;;;19.52;39.38
46710;BME280;32442;51.514;-0.178;2023-03-03T04:15:11;102525.88;;;19.51;39.25
46710;BME280;32442;51.514;-0.178;2023-03-03T04:17:41;102540.72;;;19.52;39.23
46710;BME280;32442;51.514;-0.178;2023-03-03T04:20:10;102531.47;;;19.51;39.02
46710;BME280;32442;51.514;-0.178;2023-03-03T04:22:38;102537.31;;;19.50;39.25
46710;BME280;32442;51.514;-0.178;2023-03-03T04:25:05;102540.06;;;19.45;38.95
46710;BME280;32442;51.514;-0.178;2023-03-03T04:27:33;102541.78;;;19.46;39.19
46710;BME280;32442;51.514;-0.178;2023-03-03T04:30:00;102535.31;;;19.45;39.08
46710;BME280;32442;51.514;-0.178;2023-03-03T04:32:28;102534.75;;;19.43;39.09
46710;BME280;32442;51.514;-0.178;2023-03-03T04:34:56;102542.78;;;19.40;39.40
46710;BME280;32442;51.514;-0.178;2023-03-03T04:37:33;102538.88;;;19.41;39.40
46710;BME280;32442;51.514;-0.178;2023-03-03T04:40:04;102534.38;;;19.40;39.06
46710;BME280;32442;51.514;-0.178;2023-03-03T04:42:32;102539.16;;;19.39;39.10
46710;BME280;32442;51.514;-0.178;2023-03-03T04:44:59;102540.25;;;19.38;39.41
46710;BME280;32442;51.514;-0.178;2023-03-03T04:47:26;102536.00;;;19.36;39.53
46710;BME280;32442;51.514;-0.178;2023-03-03T04:49:52;102532.09;;;19.37;39.15
46710;BME280;32442;51.514;-0.178;2023-03-03T04:52:19;102534.06;;;19.36;39.16
46710;BME280;32442;51.514;-0.178;2023-03-03T04:54:46;102529.84;;;19.34;39.22
46710;BME280;32442;51.514;-0.178;2023-03-03T04:57:13;102541.03;;;19.34;39.41
46710;BME280;32442;51.514;-0.178;2023-03-03T04:59:40;102544.09;;;19.32;39.48
46710;BME280;32442;51.514;-0.178;2023-03-03T05:02:06;102547.16;;;19.31;39.20
46710;BME280;32442;51.514;-0.178;2023-03-03T05:04:33;102538.41;;;19.27;39.59
46710;BME280;32442;51.514;-0.178;2023-03-03T05:07:00;102541.22;;;19.27;39.46
46710;BME280;32442;51.514;-0.178;2023-03-03T05:09:27;102538.41;;;19.27;39.55
46710;BME280;32442;51.514;-0.178;2023-03-03T05:11:54;102540.06;;;19.23;39.56
46710;BME280;32442;51.514;-0.178;2023-03-03T05:14:21;102544.56;;;19.24;39.35
46710;BME280;32442;51.514;-0.178;2023-03-03T05:16:47;102544.81;;;19.23;39.39
46710;BME280;32442;51.514;-0.178;2023-03-03T05:19:14;102542.84;;;19.23;39.69
46710;BME280;32442;51.514;-0.178;2023-03-03T05:21:41;102545.91;;;19.22;39.84
46710;BME280;32442;51.514;-0.178;2023-03-03T05:24:16;102550.22;;;19.29;39.29
46710;BME280;32442;51.514;-0.178;2023-03-03T05:26:45;102549.16;;;19.35;39.96
46710;BME280;32442;51.514;-0.178;2023-03-03T05:29:12;102547.56;;;19.39;39.71
46710;BME280;32442;51.514;-0.178;2023-03-03T05:31:39;102545.06;;;19.43;39.83
46710;BME280;32442;51.514;-0.178;2023-03-03T05:34:06;102557.22;;;19.48;39.61
46710;BME280;32442;51.514;-0.178;2023-03-03T05:36:34;102552.00;;;19.57;39.66
46710;BME280;32442;51.514;-0.178;2023-03-03T05:39:01;102549.84;;;19.64;39.87
46710;BME280;32442;51.514;-0.178;2023-03-03T05:41:29;102556.59;;;19.68;39.95
46710;BME280;32442;51.514;-0.178;2023-03-03T05:43:57;102556.91;;;19.72;39.66
46710;BME280;32442;51.514;-0.178;2023-03-03T05:46:24;102551.38;;;19.77;39.83
46710;BME280;32442;51.514;-0.178;2023-03-03T05:48:51;102553.38;;;19.81;39.68
46710;BME280;32442;51.514;-0.178;2023-03-03T05:51:18;102550.63;;;19.86;40.03
46710;BME280;32442;51.514;-0.178;2023-03-03T05:53:45;102551.53;;;19.92;39.85
46710;BME280;32442;51.514;-0.178;2023-03-03T05:56:12;102546.81;;;19.97;40.40
46710;BME280;32442;51.514;-0.178;2023-03-03T05:58:39;102547.72;;;20.03;40.24
46710;BME280;32442;51.514;-0.178;2023-03-03T06:01:06;102543.28;;;20.07;40.52
46710;BME280;32442;51.514;-0.178;2023-03-03T06:03:33;102542.19;;;20.13;40.03
46710;BME280;32442;51.514;-0.178;2023-03-03T06:06:00;102545.88;;;20.19;40.34
46710;BME280;32442;51.514;-0.178;2023-03-03T06:08:27;102542.88;;;20.25;39.96
46710;BME280;32442;51.514;-0.178;2023-03-03T06:10:55;102546.56;;;20.31;39.84
46710;BME280;32442;51.514;-0.178;2023-03-03T06:13:22;102544.66;;;20.36;40.13
46710;BME280;32442;51.514;-0.178;2023-03-03T06:15:49;102543.00;;;20.40;40.12
46710;BME280;32442;51.514;-0.178;2023-03-03T06:18:16;102541.94;;;20.47;39.81
46710;BME280;32442;51.514;-0.178;2023-03-03T06:20:43;102540.03;;;20.52;39.58
46710;BME280;32442;51.514;-0.178;2023-03-03T06:23:10;102540.91;;;20.58;39.73
46710;BME280;32442;51.514;-0.178;2023-03-03T06:25:37;102540.09;;;20.62;39.81
46710;BME280;32442;51.514;-0.178;2023-03-03T06:28:07;102547.72;;;20.67;39.62
46710;BME280;32442;51.514;-0.178;2023-03-03T06:30:36;102547.47;;;20.73;39.80
46710;BME280;32442;51.514;-0.178;2023-03-03T06:33:03;102546.66;;;20.78;39.63
46710;BME280;32442;51.514;-0.178;2023-03-03T06:35:33;102538.25;;;20.83;39.30
46710;BME280;32442;51.514;-0.178;2023-03-03T06:38:01;102542.47;;;20.85;39.38
46710;BME280;32442;51.514;-0.178;2023-03-03T06:40:30;102545.06;;;20.92;39.76
46710;BME280;32442;51.514;-0.178;2023-03-03T06:43:02;102540.59;;;20.96;39.16
46710;BME280;32442;51.514;-0.178;2023-03-03T06:45:31;102549.03;;;21.01;39.36
46710;BME280;32442;51.514;-0.178;2023-03-03T06:48:03;102542.59;;;21.06;39.41
46710;BME280;32442;51.514;-0.178;2023-03-03T06:50:32;102553.88;;;21.11;39.06
46710;BME280;32442;51.514;-0.178;2023-03-03T06:55:37;102555.06;;;21.20;38.58
46710;BME280;32442;51.514;-0.178;2023-03-03T06:58:08;102557.91;;;21.25;38.75
46710;BME280;32442;51.514;-0.178;2023-03-03T07:03:23;102556.78;;;21.31;38.36
46710;BME280;32442;51.514;-0.178;2023-03-03T07:05:59;102559.94;;;21.35;38.60
46710;BME280;32442;51.514;-0.178;2023-03-03T07:08:30;102567.53;;;21.39;38.26
46710;BME280;32442;51.514;-0.178;2023-03-03T07:11:01;102557.09;;;21.40;38.18
46710;BME280;32442;51.514;-0.178;2023-03-03T07:13:35;102565.28;;;21.41;38.65
46710;BME280;32442;51.514;-0.178;2023-03-03T07:16:13;102564.66;;;21.24;35.76
46710;BME280;32442;51.514;-0.178;2023-03-03T07:18:48;102570.31;;;21.29;36.36
46710;BME280;32442;51.514;-0.178;2023-03-03T07:21:23;102568.34;;;21.29;36.70
46710;BME280;32442;51.514;-0.178;2023-03-03T07:24:07;102571.97;;;21.25;36.58
46710;BME280;32442;51.514;-0.178;2023-03-03T07:26:41;102570.84;;;21.21;36.72
46710;BME280;32442;51.514;-0.178;2023-03-03T07:31:42;102577.28;;;21.16;36.58
46710;BME280;32442;51.514;-0.178;2023-03-03T07:36:52;102584.84;;;21.16;36.24
46710;BME280;32442;51.514;-0.178;2023-03-03T07:44:35;102591.50;;;21.05;34.40
46710;BME280;32442;51.514;-0.178;2023-03-03T07:49:35;102595.50;;;21.14;34.35
46710;BME280;32442;51.514;-0.178;2023-03-03T07:54:46;102610.44;;;21.19;35.11
46710;BME280;32442;51.514;-0.178;2023-03-03T07:57:25;102609.88;;;21.22;34.99
46710;BME280;32442;51.514;-0.178;2023-03-03T08:04:52;102611.06;;;21.32;35.57
46710;BME280;32442;51.514;-0.178;2023-03-03T08:07:24;102620.94;;;21.34;35.60
46710;BME280;32442;51.514;-0.178;2023-03-03T08:09:55;102612.78;;;21.38;35.56
46710;BME280;32442;51.514;-0.178;2023-03-03T08:14:55;102625.44;;;21.40;35.44
46710;BME280;32442;51.514;-0.178;2023-03-03T08:17:23;102625.44;;;21.40;35.44
46710;BME280;32442;51.514;-0.178;2023-03-03T08:19:50;102631.66;;;21.42;35.76
46710;BME280;32442;51.514;-0.178;2023-03-03T08:24:48;102627.19;;;21.46;35.35
46710;BME280;32442;51.514;-0.178;2023-03-03T08:27:15;102624.94;;;21.48;35.55
46710;BME280;32442;51.514;-0.178;2023-03-03T08:29:42;102636.19;;;21.48;35.46
46710;BME280;32442;51.514;-0.178;2023-03-03T08:32:11;102639.00;;;21.53;35.35
46710;BME280;32442;51.514;-0.178;2023-03-03T08:34:38;102627.50;;;21.60;35.43
46710;BME280;32442;51.514;-0.178;2023-03-03T08:37:05;102639.63;;;21.60;34.80
46710;BME280;32442;51.514;-0.178;2023-03-03T08:39:32;102634.53;;;21.62;34.95
46710;BME280;32442;51.514;-0.178;2023-03-03T08:41:59;102631.22;;;21.65;34.90
46710;BME280;32442;51.514;-0.178;2023-03-03T08:44:26;102631.75;;;21.67;34.66
46710;BME280;32442;51.514;-0.178;2023-03-03T08:46:53;102627.84;;;21.68;34.70
46710;BME280;32442;51.514;-0.178;2023-03-03T08:49:20;102630.66;;;21.68;34.50
46710;BME280;32442;51.514;-0.178;2023-03-03T08:51:48;102628.38;;;21.65;34.59
46710;BME280;32442;51.514;-0.178;2023-03-03T08:54:14;102634.31;;;21.69;34.65
46710;BME280;32442;51.514;-0.178;2023-03-03T08:56:42;102629.25;;;21.66;34.20
46710;BME280;32442;51.514;-0.178;2023-03-03T08:59:09;102634.03;;;21.65;34.41
46710;BME280;32442;51.514;-0.178;2023-03-03T09:01:37;102621.06;;;21.64;34.53
46710;BME280;32442;51.514;-0.178;2023-03-03T09:04:04;102626.69;;;21.64;34.56
46710;BME280;32442;51.514;-0.178;2023-03-03T09:06:31;102633.44;;;21.63;34.34
46710;BME280;32442;51.514;-0.178;2023-03-03T09:08:58;102628.09;;;21.67;34.96
46710;BME280;32442;51.514;-0.178;2023-03-03T09:11:26;102621.97;;;21.80;35.88
46710;BME280;32442;51.514;-0.178;2023-03-03T09:13:57;102638.31;;;21.88;36.09
46710;BME280;32442;51.514;-0.178;2023-03-03T09:16:25;102634.41;;;21.89;35.94
46710;BME280;32442;51.514;-0.178;2023-03-03T09:18:55;102634.63;;;21.83;35.99
46710;BME280;32442;51.514;-0.178;2023-03-03T09:21:24;102630.41;;;21.80;36.01
46710;BME280;32442;51.514;-0.178;2023-03-03T09:23:54;102636.28;;;21.73;36.24
46710;BME280;32442;51.514;-0.178;2023-03-03T09:26:23;102635.41;;;21.68;35.72
46710;BME280;32442;51.514;-0.178;2023-03-03T09:31:35;102629.78;;;21.63;35.73
46710;BME280;32442;51.514;-0.178;2023-03-03T09:36:35;102647.75;;;21.52;35.81
46710;BME280;32442;51.514;-0.178;2023-03-03T09:44:11;102643.16;;;21.41;35.92
46710;BME280;32442;51.514;-0.178;2023-03-03T09:51:46;102649.03;;;21.29;36.05
46710;BME280;32442;51.514;-0.178;2023-03-03T10:06:44;102647.84;;;21.20;35.69
46710;BME280;32442;51.514;-0.178;2023-03-03T10:41:52;102671.66;;;21.59;34.46
46710;BME280;32442;51.514;-0.178;2023-03-03T11:04:24;102677.53;;;21.48;34.46
46710;BME280;32442;51.514;-0.178;2023-03-03T11:14:30;102687.59;;;21.39;34.25
46710;BME280;32442;51.514;-0.178;2023-03-03T11:22:05;102694.56;;;21.31;34.43
46710;BME280;32442;51.514;-0.178;2023-03-03T11:29:38;102687.50;;;21.23;34.03
46710;BME280;32442;51.514;-0.178;2023-03-03T11:37:11;102694.78;;;21.19;34.56
46710;BME280;32442;51.514;-0.178;2023-03-03T11:39:42;102693.63;;;21.15;34.48
46710;BME280;32442;51.514;-0.178;2023-03-03T11:44:41;102687.94;;;21.10;34.57
46710;BME280;32442;51.514;-0.178;2023-03-03T12:02:21;102682.75;;;20.92;34.67
46710;BME280;32442;51.514;-0.178;2023-03-03T12:22:23;102678.38;;;20.74;34.30
46710;BME280;32442;51.514;-0.178;2023-03-03T12:34:55;102666.19;;;20.64;34.81
46710;BME280;32442;51.514;-0.178;2023-03-03T12:40:06;102674.00;;;20.57;34.77
46710;BME280;32442;51.514;-0.178;2023-03-03T12:42:37;102659.66;;;20.53;34.78
46710;BME280;32442;51.514;-0.178;2023-03-03T12:47:39;102664.69;;;20.51;34.52
46710;BME280;32442;51.514;-0.178;2023-03-03T12:50:18;102668.59;;;20.50;35.07
46710;BME280;32442;51.514;-0.178;2023-03-03T12:57:57;102666.66;;;20.51;34.74
46710;BME280;32442;51.514;-0.178;2023-03-03T13:00:31;102661.34;;;20.54;34.83
46710;BME280;32442;51.514;-0.178;2023-03-03T13:05:32;102662.81;;;20.62;34.58
46710;BME280;32442;51.514;-0.178;2023-03-03T13:10:44;102666.56;;;20.72;34.41
46710;BME280;32442;51.514;-0.178;2023-03-03T13:31:15;102651.50;;;21.20;34.17
46710;BME280;32442;51.514;-0.178;2023-03-03T13:33:50;102653.22;;;21.26;34.03
46710;BME280;32442;51.514;-0.178;2023-03-03T13:36:19;102656.34;;;21.30;33.88
46710;BME280;32442;51.514;-0.178;2023-03-03T13:38:50;102652.72;;;21.35;33.76
46710;BME280;32442;51.514;-0.178;2023-03-03T13:41:21;102654.38;;;21.36;34.04
46710;BME280;32442;51.514;-0.178;2023-03-03T13:46:25;102648.75;;;21.36;33.90
46710;BME280;32442;51.514;-0.178;2023-03-03T13:59:02;102644.59;;;21.43;33.44
46710;BME280;32442;51.514;-0.178;2023-03-03T14:01:41;102646.84;;;21.41;33.60
46710;BME280;32442;51.514;-0.178;2023-03-03T14:06:41;102651.56;;;21.36;33.64
46710;BME280;32442;51.514;-0.178;2023-03-03T14:11:45;102651.88;;;21.34;34.09
46710;BME280;32442;51.514;-0.178;2023-03-03T14:19:14;102648.72;;;21.30;33.54
46710;BME280;32442;51.514;-0.178;2023-03-03T14:24:15;102641.97;;;21.26;33.62
46710;BME280;32442;51.514;-0.178;2023-03-03T14:29:18;102646.72;;;21.21;33.67
46710;BME280;32442;51.514;-0.178;2023-03-03T14:31:46;102646.13;;;21.19;33.79
46710;BME280;32442;51.514;-0.178;2023-03-03T14:34:25;102643.59;;;21.17;33.87
46710;BME280;32442;51.514;-0.178;2023-03-03T14:36:57;102637.41;;;21.15;34.13
46710;BME280;32442;51.514;-0.178;2023-03-03T14:41:56;102632.56;;;21.11;33.72
46710;BME280;32442;51.514;-0.178;2023-03-03T14:51:53;102626.31;;;21.04;34.09
46710;BME280;32442;51.514;-0.178;2023-03-03T14:54:28;102622.97;;;21.02;33.81
46710;BME280;32442;51.514;-0.178;2023-03-03T14:57:01;102621.53;;;20.99;34.11
46710;BME280;32442;51.514;-0.178;2023-03-03T14:59:29;102612.78;;;20.96;33.92
46710;BME280;32442;51.514;-0.178;2023-03-03T15:04:27;102610.25;;;20.94;34.09
46710;BME280;32442;51.514;-0.178;2023-03-03T15:06:57;102612.75;;;20.91;34.30
46710;BME280;32442;51.514;-0.178;2023-03-03T15:12:02;102602.31;;;20.86;34.26
46710;BME280;32442;51.514;-0.178;2023-03-03T15:14:41;102605.44;;;20.84;34.41
46710;BME280;32442;51.514;-0.178;2023-03-03T15:17:12;102601.19;;;20.82;34.12
46710;BME280;32442;51.514;-0.178;2023-03-03T15:22:13;102589.91;;;20.77;34.33
46710;BME280;32442;51.514;-0.178;2023-03-03T15:27:23;102591.00;;;20.71;34.14
46710;BME280;32442;51.514;-0.178;2023-03-03T15:42:21;102581.91;;;20.59;34.60
46710;BME280;32442;51.514;-0.178;2023-03-03T15:47:23;102578.22;;;20.53;34.65
46710;BME280;32442;51.514;-0.178;2023-03-03T16:05:02;102582.31;;;20.40;34.84
46710;BME280;32442;51.514;-0.178;2023-03-03T16:37:54;102591.91;;;20.18;35.22
46710;BME280;32442;51.514;-0.178;2023-03-03T16:42:56;102598.59;;;20.12;35.10
46710;BME280;32442;51.514;-0.178;2023-03-03T16:45:29;102601.41;;;20.12;35.56
46710;BME280;32442;51.514;-0.178;2023-03-03T16:48:07;102601.66;;;20.10;35.26
46710;BME280;32442;51.514;-0.178;2023-03-03T16:50:43;102593.53;;;20.14;35.25
46710;BME280;32442;51.514;-0.178;2023-03-03T16:55:45;102593.06;;;20.22;35.31
46710;BME280;32442;51.514;-0.178;2023-03-03T17:05:49;102592.44;;;20.41;35.15
46710;BME280;32442;51.514;-0.178;2023-03-03T17:30:38;102618.88;;;20.82;34.57
46710;BME280;32442;51.514;-0.178;2023-03-03T17:43:11;102625.34;;;20.83;34.26
46710;BME280;32442;51.514;-0.178;2023-03-03T17:45:40;102623.38;;;20.83;34.51
46710;BME280;32442;51.514;-0.178;2023-03-03T18:10:36;102640.47;;;20.77;34.02
46710;BME280;32442;51.514;-0.178;2023-03-03T18:33:09;102655.81;;;20.64;34.39
46710;BME280;32442;51.514;-0.178;2023-03-03T18:40:35;102659.44;;;20.60;34.63
46710;BME280;32442;51.514;-0.178;2023-03-03T18:48:11;102663.59;;;20.52;34.21
46710;BME280;32442;51.514;-0.178;2023-03-03T18:55:39;102673.91;;;20.47;34.33
46710;BME280;32442;51.514;-0.178;2023-03-03T19:00:41;102678.38;;;20.42;34.62
46710;BME280;32442;51.514;-0.178;2023-03-03T19:05:46;102678.06;;;20.39;34.83
46710;BME280;32442;51.514;-0.178;2023-03-03T19:15:45;102682.94;;;20.27;34.83
46710;BME280;32442;51.514;-0.178;2023-03-03T19:20:40;102687.97;;;20.25;34.67
46710;BME280;32442;51.514;-0.178;2023-03-03T19:23:11;102688.47;;;20.22;34.76
46710;BME280;32442;51.514;-0.178;2023-03-03T19:25:39;102687.06;;;20.19;35.03
46710;BME280;32442;51.514;-0.178;2023-03-03T19:33:10;102684.44;;;20.13;34.88
46710;BME280;32442;51.514;-0.178;2023-03-03T19:35:44;102682.78;;;20.12;34.72
46710;BME280;32442;51.514;-0.178;2023-03-03T19:58:12;102694.34;;;19.93;35.03
46710;BME280;32442;51.514;-0.178;2023-03-03T20:05:46;102706.84;;;19.86;35.27
46710;BME280;32442;51.514;-0.178;2023-03-03T20:10:44;102707.38;;;19.83;35.23
46710;BME280;32442;51.514;-0.178;2023-03-03T20:25:44;102707.53;;;19.71;35.45
46710;BME280;32442;51.514;-0.178;2023-03-03T20:30:46;102713.91;;;19.67;35.40
46710;BME280;32442;51.514;-0.178;2023-03-03T20:33:21;102713.84;;;19.62;35.79
46710;BME280;32442;51.514;-0.178;2023-03-03T20:35:57;102714.09;;;19.60;35.74
46710;BME280;32442;51.514;-0.178;2023-03-03T20:38:30;102723.03;;;19.57;35.76
46710;BME280;32442;51.514;-0.178;2023-03-03T20:48:37;102721.19;;;19.46;35.85
46710;BME280;32442;51.514;-0.178;2023-03-03T21:03:37;102733.91;;;19.37;35.86
46710;BME280;32442;51.514;-0.178;2023-03-03T21:11:05;102737.72;;;19.31;36.13
46710;BME280;32442;51.514;-0.178;2023-03-03T21:13:36;102738.84;;;19.30;36.12
46710;BME280;32442;51.514;-0.178;2023-03-03T21:18:54;102746.06;;;19.26;35.83
46710;BME280;32442;51.514;-0.178;2023-03-03T21:21:23;102745.47;;;19.24;36.21
46710;BME280;32442;51.514;-0.178;2023-03-03T21:23:53;102752.16;;;19.23;36.00
46710;BME280;32442;51.514;-0.178;2023-03-03T21:31:23;102749.56;;;19.16;36.10
46710;BME280;32442;51.514;-0.178;2023-03-03T21:33:52;102760.16;;;19.14;36.06
46710;BME280;32442;51.514;-0.178;2023-03-03T21:38:51;102747.53;;;19.12;36.18
46710;BME280;32442;51.514;-0.178;2023-03-03T21:41:19;102753.63;;;19.08;36.07
46710;BME280;32442;51.514;-0.178;2023-03-03T21:43:47;102751.94;;;19.07;36.24
46710;BME280;32442;51.514;-0.178;2023-03-03T21:48:45;102756.09;;;19.05;36.19
46710;BME280;32442;51.514;-0.178;2023-03-03T21:51:12;102761.34;;;19.01;36.03